sensor_id;sensor_type;location;lat;lon;timestamp;P1;durP1;ratioP1;P2;durP2;ratioP2
20739;SDS011;10530;49.968;19.844;2022-12-18T00:02:06;11.07;;;4.67;;
20739;SDS011;10530;49.968;19.844;2022-12-18T00:07:08;17.52;;;7.45;;
20739;SDS011;10530;49.968;19.844;2022-12-18T00:12:11;18.27;;;6.22;;
20739;SDS011;10530;49.968;19.844;2022-12-18T00:17:16;15.43;;;6.00;;
20739;SDS011;10530;49.968;19.844;2022-12-18T00:22:19;15.20;;;3.90;;
20739;SDS011;10530;49.968;19.844;2022-12-18T00:27:22;15.60;;;5.97;;
20739;SDS011;10530;49.968;19.844;2022-12-18T00:32:24;22.70;;;7.40;;
20739;SDS011;10530;49.968;19.844;2022-12-18T00:37:27;13.52;;;6.15;;
20739;SDS011;10530;49.968;19.844;2022-12-18T00:42:30;13.20;;;5.05;;
20739;SDS011;10530;49.968;19.844;2022-12-18T00:47:51;10.35;;;5.20;;
20739;SDS011;10530;49.968;19.844;2022-12-18T00:52:54;12.73;;;5.43;;
20739;SDS011;10530;49.968;19.844;2022-12-18T00:57:56;11.40;;;5.53;;
20739;SDS011;10530;49.968;19.844;2022-12-18T01:02:59;19.05;;;6.85;;
20739;SDS011;10530;49.968;19.844;2022-12-18T01:08:02;12.23;;;4.80;;
20739;SDS011;10530;49.968;19.844;2022-12-18T01:13:05;22.60;;;7.97;;
20739;SDS011;10530;49.968;19.844;2022-12-18T01:18:08;12.60;;;6.20;;
20739;SDS011;10530;49.968;19.844;2022-12-18T01:23:10;8.93;;;4.32;;
20739;SDS011;10530;49.968;19.844;2022-12-18T01:28:13;7.88;;;2.63;;
20739;SDS011;10530;49.968;19.844;2022-12-18T01:33:16;15.82;;;6.05;;
20739;SDS011;10530;49.968;19.844;2022-12-18T01:38:18;25.17;;;5.60;;
20739;SDS011;10530;49.968;19.844;2022-12-18T01:43:21;14.83;;;5.77;;
20739;SDS011;10530;49.968;19.844;2022-12-18T01:48:24;21.30;;;6.60;;
20739;SDS011;10530;49.968;19.844;2022-12-18T01:53:27;11.90;;;5.72;;
20739;SDS011;10530;49.968;19.844;2022-12-18T01:58:37;16.17;;;6.70;;
20739;SDS011;10530;49.968;19.844;2022-12-18T02:03:43;17.48;;;5.03;;
20739;SDS011;10530;49.968;19.844;2022-12-18T02:08:48;20.47;;;6.30;;
20739;SDS011;10530;49.968;19.844;2022-12-18T02:14:13;17.42;;;4.65;;
20739;SDS011;10530;49.968;19.844;2022-12-18T02:19:43;12.43;;;6.20;;
20739;SDS011;10530;49.968;19.844;2022-12-18T02:25:05;12.27;;;2.97;;
20739;SDS011;10530;49.968;19.844;2022-12-18T02:30:23;23.45;;;7.32;;
20739;SDS011;10530;49.968;19.844;2022-12-18T02:35:27;11.33;;;5.80;;
20739;SDS011;10530;49.968;19.844;2022-12-18T02:40:34;18.27;;;6.65;;
20739;SDS011;10530;49.968;19.844;2022-12-18T02:45:55;21.00;;;6.70;;
20739;SDS011;10530;49.968;19.844;2022-12-18T02:51:04;16.25;;;5.35;;
20739;SDS011;10530;49.968;19.844;2022-12-18T02:56:20;26.85;;;6.45;;
20739;SDS011;10530;49.968;19.844;2022-12-18T03:01:30;20.67;;;5.47;;
20739;SDS011;10530;49.968;19.844;2022-12-18T03:06:59;16.75;;;6.03;;
20739;SDS011;10530;49.968;19.844;2022-12-18T03:12:15;14.88;;;6.13;;
20739;SDS011;10530;49.968;19.844;2022-12-18T03:17:26;7.03;;;2.92;;
20739;SDS011;10530;49.968;19.844;2022-12-18T03:22:33;9.07;;;2.38;;
20739;SDS011;10530;49.968;19.844;2022-12-18T03:27:41;9.53;;;3.70;;
20739;SDS011;10530;49.968;19.844;2022-12-18T03:33:07;15.77;;;7.28;;
20739;SDS011;10530;49.968;19.844;2022-12-18T03:38:17;17.27;;;5.60;;
20739;SDS011;10530;49.968;19.844;2022-12-18T03:48:52;13.27;;;7.53;;
20739;SDS011;10530;49.968;19.844;2022-12-18T03:54:10;13.53;;;6.13;;
20739;SDS011;10530;49.968;19.844;2022-12-18T03:59:22;15.60;;;6.10;;
20739;SDS011;10530;49.968;19.844;2022-12-18T04:04:28;25.35;;;7.43;;
20739;SDS011;10530;49.968;19.844;2022-12-18T04:09:35;14.20;;;4.80;;
20739;SDS011;10530;49.968;19.844;2022-12-18T04:14:40;12.80;;;5.32;;
20739;SDS011;10530;49.968;19.844;2022-12-18T04:19:44;16.30;;;7.43;;
20739;SDS011;10530;49.968;19.844;2022-12-18T04:24:46;27.20;;;7.05;;
20739;SDS011;10530;49.968;19.844;2022-12-18T04:29:58;12.55;;;5.53;;
20739;SDS011;10530;49.968;19.844;2022-12-18T04:35:01;8.32;;;3.47;;
20739;SDS011;10530;49.968;19.844;2022-12-18T04:40:07;24.13;;;7.13;;
20739;SDS011;10530;49.968;19.844;2022-12-18T04:45:15;15.63;;;6.10;;
20739;SDS011;10530;49.968;19.844;2022-12-18T04:50:19;13.63;;;5.28;;
20739;SDS011;10530;49.968;19.844;2022-12-18T04:55:21;4.65;;;1.77;;
20739;SDS011;10530;49.968;19.844;2022-12-18T05:00:24;10.68;;;4.53;;
20739;SDS011;10530;49.968;19.844;2022-12-18T05:05:27;15.05;;;5.45;;
20739;SDS011;10530;49.968;19.844;2022-12-18T05:10:30;21.27;;;6.10;;
20739;SDS011;10530;49.968;19.844;2022-12-18T05:15:38;7.63;;;4.30;;
20739;SDS011;10530;49.968;19.844;2022-12-18T05:20:41;6.38;;;2.50;;
20739;SDS011;10530;49.968;19.844;2022-12-18T05:25:50;14.57;;;5.35;;
20739;SDS011;10530;49.968;19.844;2022-12-18T05:30:58;23.88;;;8.43;;
20739;SDS011;10530;49.968;19.844;2022-12-18T05:36:03;15.13;;;4.87;;
20739;SDS011;10530;49.968;19.844;2022-12-18T05:41:08;11.82;;;5.13;;
20739;SDS011;10530;49.968;19.844;2022-12-18T05:46:12;20.95;;;7.68;;
20739;SDS011;10530;49.968;19.844;2022-12-18T05:51:17;15.23;;;5.50;;
20739;SDS011;10530;49.968;19.844;2022-12-18T05:56:22;17.45;;;6.30;;
20739;SDS011;10530;49.968;19.844;2022-12-18T06:01:25;13.60;;;5.23;;
20739;SDS011;10530;49.968;19.844;2022-12-18T06:06:28;12.48;;;4.85;;
20739;SDS011;10530;49.968;19.844;2022-12-18T06:11:31;22.25;;;4.93;;
20739;SDS011;10530;49.968;19.844;2022-12-18T06:16:34;25.73;;;5.55;;
20739;SDS011;10530;49.968;19.844;2022-12-18T06:21:37;21.42;;;6.15;;
20739;SDS011;10530;49.968;19.844;2022-12-18T06:26:40;16.27;;;5.73;;
20739;SDS011;10530;49.968;19.844;2022-12-18T06:31:43;19.60;;;6.15;;
20739;SDS011;10530;49.968;19.844;2022-12-18T06:36:45;21.98;;;7.38;;
20739;SDS011;10530;49.968;19.844;2022-12-18T06:41:48;13.85;;;4.78;;
20739;SDS011;10530;49.968;19.844;2022-12-18T06:46:51;11.57;;;5.38;;
20739;SDS011;10530;49.968;19.844;2022-12-18T06:51:53;13.07;;;5.47;;
20739;SDS011;10530;49.968;19.844;2022-12-18T06:56:56;14.48;;;5.85;;
20739;SDS011;10530;49.968;19.844;2022-12-18T07:01:58;23.92;;;7.50;;
20739;SDS011;10530;49.968;19.844;2022-12-18T07:07:01;22.33;;;7.97;;
20739;SDS011;10530;49.968;19.844;2022-12-18T07:12:04;18.48;;;7.47;;
20739;SDS011;10530;49.968;19.844;2022-12-18T07:17:08;22.13;;;7.50;;
20739;SDS011;10530;49.968;19.844;2022-12-18T07:22:11;16.17;;;6.32;;
20739;SDS011;10530;49.968;19.844;2022-12-18T07:27:14;16.02;;;6.70;;
20739;SDS011;10530;49.968;19.844;2022-12-18T07:32:17;23.55;;;9.32;;
20739;SDS011;10530;49.968;19.844;2022-12-18T07:37:19;30.25;;;8.23;;
20739;SDS011;10530;49.968;19.844;2022-12-18T07:42:22;25.23;;;8.50;;
20739;SDS011;10530;49.968;19.844;2022-12-18T07:47:34;35.58;;;9.45;;
20739;SDS011;10530;49.968;19.844;2022-12-18T07:52:40;18.52;;;7.80;;
20739;SDS011;10530;49.968;19.844;2022-12-18T07:57:43;24.00;;;7.88;;
20739;SDS011;10530;49.968;19.844;2022-12-18T08:02:58;30.23;;;9.10;;
20739;SDS011;10530;49.968;19.844;2022-12-18T08:08:01;16.63;;;7.87;;
20739;SDS011;10530;49.968;19.844;2022-12-18T08:13:04;25.70;;;7.63;;
20739;SDS011;10530;49.968;19.844;2022-12-18T08:18:06;21.80;;;7.13;;
20739;SDS011;10530;49.968;19.844;2022-12-18T08:23:15;24.02;;;8.25;;
20739;SDS011;10530;49.968;19.844;2022-12-18T08:28:17;27.23;;;7.95;;
20739;SDS011;10530;49.968;19.844;2022-12-18T08:33:20;17.23;;;6.77;;
20739;SDS011;10530;49.968;19.844;2022-12-18T08:38:23;21.92;;;8.45;;
20739;SDS011;10530;49.968;19.844;2022-12-18T08:43:26;23.90;;;8.48;;
20739;SDS011;10530;49.968;19.844;2022-12-18T08:48:48;39.42;;;9.82;;
20739;SDS011;10530;49.968;19.844;2022-12-18T08:53:52;37.00;;;10.07;;
20739;SDS011;10530;49.968;19.844;2022-12-18T08:58:55;26.60;;;8.80;;
20739;SDS011;10530;49.968;19.844;2022-12-18T09:03:58;39.10;;;8.88;;
20739;SDS011;10530;49.968;19.844;2022-12-18T09:09:02;31.52;;;8.98;;
20739;SDS011;10530;49.968;19.844;2022-12-18T09:14:05;30.90;;;9.18;;
20739;SDS011;10530;49.968;19.844;2022-12-18T09:19:08;39.20;;;11.35;;
20739;SDS011;10530;49.968;19.844;2022-12-18T09:24:12;23.07;;;8.83;;
20739;SDS011;10530;49.968;19.844;2022-12-18T09:29:16;31.40;;;9.00;;
20739;SDS011;10530;49.968;19.844;2022-12-18T09:34:19;37.92;;;11.38;;
20739;SDS011;10530;49.968;19.844;2022-12-18T09:39:23;16.55;;;7.63;;
20739;SDS011;10530;49.968;19.844;2022-12-18T09:44:30;27.85;;;9.98;;
20739;SDS011;10530;49.968;19.844;2022-12-18T09:49:47;37.80;;;11.50;;
20739;SDS011;10530;49.968;19.844;2022-12-18T09:55:00;30.77;;;9.15;;
20739;SDS011;10530;49.968;19.844;2022-12-18T10:00:15;39.72;;;13.70;;
20739;SDS011;10530;49.968;19.844;2022-12-18T10:21:25;46.17;;;15.27;;
20739;SDS011;10530;49.968;19.844;2022-12-18T10:27:11;47.55;;;15.63;;
20739;SDS011;10530;49.968;19.844;2022-12-18T10:32:20;43.50;;;17.05;;
20739;SDS011;10530;49.968;19.844;2022-12-18T10:37:26;43.58;;;16.95;;
20739;SDS011;10530;49.968;19.844;2022-12-18T10:42:30;44.63;;;15.97;;
20739;SDS011;10530;49.968;19.844;2022-12-18T10:47:33;61.25;;;19.52;;
20739;SDS011;10530;49.968;19.844;2022-12-18T10:52:36;47.75;;;17.08;;
20739;SDS011;10530;49.968;19.844;2022-12-18T10:57:45;51.75;;;17.13;;
20739;SDS011;10530;49.968;19.844;2022-12-18T11:02:48;47.95;;;15.60;;
20739;SDS011;10530;49.968;19.844;2022-12-18T11:07:52;45.43;;;16.43;;
20739;SDS011;10530;49.968;19.844;2022-12-18T11:12:56;52.53;;;16.80;;
20739;SDS011;10530;49.968;19.844;2022-12-18T11:23:25;46.88;;;15.85;;
20739;SDS011;10530;49.968;19.844;2022-12-18T11:28:34;52.50;;;17.92;;
20739;SDS011;10530;49.968;19.844;2022-12-18T11:33:40;43.17;;;15.60;;
20739;SDS011;10530;49.968;19.844;2022-12-18T11:39:15;57.97;;;16.35;;
20739;SDS011;10530;49.968;19.844;2022-12-18T11:44:28;43.90;;;14.23;;
20739;SDS011;10530;49.968;19.844;2022-12-18T11:49:37;43.95;;;15.43;;
20739;SDS011;10530;49.968;19.844;2022-12-18T11:54:43;50.33;;;16.88;;
20739;SDS011;10530;49.968;19.844;2022-12-18T12:00:04;47.33;;;16.60;;
20739;SDS011;10530;49.968;19.844;2022-12-18T12:05:24;46.92;;;15.82;;
20739;SDS011;10530;49.968;19.844;2022-12-18T12:16:12;49.10;;;16.15;;
20739;SDS011;10530;49.968;19.844;2022-12-18T12:21:24;47.50;;;15.68;;
20739;SDS011;10530;49.968;19.844;2022-12-18T12:26:38;40.03;;;13.03;;
20739;SDS011;10530;49.968;19.844;2022-12-18T12:32:13;42.95;;;14.45;;
20739;SDS011;10530;49.968;19.844;2022-12-18T12:37:23;41.15;;;14.85;;
20739;SDS011;10530;49.968;19.844;2022-12-18T12:42:56;39.88;;;13.25;;
20739;SDS011;10530;49.968;19.844;2022-12-18T12:48:28;36.33;;;12.57;;
20739;SDS011;10530;49.968;19.844;2022-12-18T12:53:36;32.93;;;11.60;;
20739;SDS011;10530;49.968;19.844;2022-12-18T13:03:52;30.17;;;10.18;;
20739;SDS011;10530;49.968;19.844;2022-12-18T13:09:06;26.95;;;9.60;;
20739;SDS011;10530;49.968;19.844;2022-12-18T13:14:12;31.65;;;9.57;;
20739;SDS011;10530;49.968;19.844;2022-12-18T13:19:25;30.00;;;10.77;;
20739;SDS011;10530;49.968;19.844;2022-12-18T13:24:30;28.48;;;10.60;;
20739;SDS011;10530;49.968;19.844;2022-12-18T13:29:44;32.25;;;10.13;;
20739;SDS011;10530;49.968;19.844;2022-12-18T13:34:48;29.20;;;9.73;;
20739;SDS011;10530;49.968;19.844;2022-12-18T13:45:44;26.30;;;9.77;;
20739;SDS011;10530;49.968;19.844;2022-12-18T13:51:09;24.65;;;9.02;;
20739;SDS011;10530;49.968;19.844;2022-12-18T13:56:16;30.58;;;10.05;;
20739;SDS011;10530;49.968;19.844;2022-12-18T14:01:22;24.70;;;10.05;;
20739;SDS011;10530;49.968;19.844;2022-12-18T14:06:26;22.60;;;9.23;;
20739;SDS011;10530;49.968;19.844;2022-12-18T14:11:29;29.17;;;9.93;;
20739;SDS011;10530;49.968;19.844;2022-12-18T14:16:32;26.00;;;8.75;;
20739;SDS011;10530;49.968;19.844;2022-12-18T14:21:37;32.53;;;13.20;;
20739;SDS011;10530;49.968;19.844;2022-12-18T14:26:41;20.20;;;8.38;;
20739;SDS011;10530;49.968;19.844;2022-12-18T14:31:44;32.58;;;12.85;;
20739;SDS011;10530;49.968;19.844;2022-12-18T14:36:53;35.00;;;11.37;;
20739;SDS011;10530;49.968;19.844;2022-12-18T14:41:58;28.55;;;13.65;;
20739;SDS011;10530;49.968;19.844;2022-12-18T14:47:00;29.75;;;11.45;;
20739;SDS011;10530;49.968;19.844;2022-12-18T14:52:05;29.23;;;13.38;;
20739;SDS011;10530;49.968;19.844;2022-12-18T14:57:21;22.20;;;9.35;;
20739;SDS011;10530;49.968;19.844;2022-12-18T15:02:31;22.37;;;10.00;;
20739;SDS011;10530;49.968;19.844;2022-12-18T15:07:44;11.50;;;6.75;;
20739;SDS011;10530;49.968;19.844;2022-12-18T15:18:05;17.63;;;8.48;;
20739;SDS011;10530;49.968;19.844;2022-12-18T15:28:26;23.27;;;9.37;;
20739;SDS011;10530;49.968;19.844;2022-12-18T15:33:38;22.75;;;11.82;;
20739;SDS011;10530;49.968;19.844;2022-12-18T15:38:47;30.08;;;12.95;;
20739;SDS011;10530;49.968;19.844;2022-12-18T15:43:51;19.23;;;9.65;;
20739;SDS011;10530;49.968;19.844;2022-12-18T15:48:55;20.25;;;8.88;;
20739;SDS011;10530;49.968;19.844;2022-12-18T15:54:04;25.87;;;9.50;;
20739;SDS011;10530;49.968;19.844;2022-12-18T15:59:12;17.13;;;7.97;;
20739;SDS011;10530;49.968;19.844;2022-12-18T16:04:17;16.48;;;7.95;;
20739;SDS011;10530;49.968;19.844;2022-12-18T16:09:24;14.65;;;7.97;;
20739;SDS011;10530;49.968;19.844;2022-12-18T16:14:29;18.20;;;10.30;;
20739;SDS011;10530;49.968;19.844;2022-12-18T16:19:33;16.50;;;8.77;;
20739;SDS011;10530;49.968;19.844;2022-12-18T16:24:35;25.48;;;11.45;;
20739;SDS011;10530;49.968;19.844;2022-12-18T16:29:39;18.35;;;7.88;;
20739;SDS011;10530;49.968;19.844;2022-12-18T16:34:42;18.67;;;9.80;;
20739;SDS011;10530;49.968;19.844;2022-12-18T16:39:45;22.90;;;11.75;;
20739;SDS011;10530;49.968;19.844;2022-12-18T16:44:48;25.53;;;12.97;;
20739;SDS011;10530;49.968;19.844;2022-12-18T16:49:51;33.20;;;15.05;;
20739;SDS011;10530;49.968;19.844;2022-12-18T16:54:54;120.25;;;54.60;;
20739;SDS011;10530;49.968;19.844;2022-12-18T16:59:57;92.85;;;34.53;;
20739;SDS011;10530;49.968;19.844;2022-12-18T17:05:06;24.83;;;13.63;;
20739;SDS011;10530;49.968;19.844;2022-12-18T17:10:09;24.60;;;9.77;;
20739;SDS011;10530;49.968;19.844;2022-12-18T17:15:11;28.15;;;11.18;;
20739;SDS011;10530;49.968;19.844;2022-12-18T17:20:15;22.20;;;12.38;;
20739;SDS011;10530;49.968;19.844;2022-12-18T17:25:20;26.52;;;9.07;;
20739;SDS011;10530;49.968;19.844;2022-12-18T17:30:25;27.10;;;10.82;;
20739;SDS011;10530;49.968;19.844;2022-12-18T17:35:27;27.00;;;9.60;;
20739;SDS011;10530;49.968;19.844;2022-12-18T17:40:32;33.25;;;8.15;;
20739;SDS011;10530;49.968;19.844;2022-12-18T17:45:35;23.80;;;6.05;;
20739;SDS011;10530;49.968;19.844;2022-12-18T17:50:39;9.88;;;3.78;;
20739;SDS011;10530;49.968;19.844;2022-12-18T17:55:42;7.53;;;3.60;;
20739;SDS011;10530;49.968;19.844;2022-12-18T18:00:45;15.40;;;6.07;;
20739;SDS011;10530;49.968;19.844;2022-12-18T18:07:58;16.47;;;8.53;;
20739;SDS011;10530;49.968;19.844;2022-12-18T18:13:06;22.98;;;9.25;;
20739;SDS011;10530;49.968;19.844;2022-12-18T18:18:47;23.33;;;10.43;;
20739;SDS011;10530;49.968;19.844;2022-12-18T18:23:50;24.70;;;13.27;;
20739;SDS011;10530;49.968;19.844;2022-12-18T18:28:54;18.05;;;9.38;;
20739;SDS011;10530;49.968;19.844;2022-12-18T18:33:57;14.47;;;7.33;;
20739;SDS011;10530;49.968;19.844;2022-12-18T18:39:00;14.95;;;7.88;;
20739;SDS011;10530;49.968;19.844;2022-12-18T18:44:03;22.48;;;8.45;;
20739;SDS011;10530;49.968;19.844;2022-12-18T18:49:06;13.77;;;7.90;;
20739;SDS011;10530;49.968;19.844;2022-12-18T18:54:08;23.05;;;10.13;;
20739;SDS011;10530;49.968;19.844;2022-12-18T18:59:11;13.10;;;6.70;;
20739;SDS011;10530;49.968;19.844;2022-12-18T19:04:14;15.88;;;8.55;;
20739;SDS011;10530;49.968;19.844;2022-12-18T19:09:17;19.25;;;8.82;;
20739;SDS011;10530;49.968;19.844;2022-12-18T19:14:20;10.70;;;6.07;;
20739;SDS011;10530;49.968;19.844;2022-12-18T19:19:23;21.30;;;8.77;;
20739;SDS011;10530;49.968;19.844;2022-12-18T20:00:28;6.30;;;4.67;;
20739;SDS011;10530;49.968;19.844;2022-12-18T20:05:31;14.60;;;8.23;;
20739;SDS011;10530;49.968;19.844;2022-12-18T20:10:34;21.75;;;8.25;;
20739;SDS011;10530;49.968;19.844;2022-12-18T20:15:37;23.83;;;7.57;;
20739;SDS011;10530;49.968;19.844;2022-12-18T20:20:45;12.68;;;7.07;;
20739;SDS011;10530;49.968;19.844;2022-12-18T20:25:51;14.10;;;6.87;;
20739;SDS011;10530;49.968;19.844;2022-12-18T20:31:01;13.95;;;7.13;;
20739;SDS011;10530;49.968;19.844;2022-12-18T20:36:09;12.68;;;6.68;;
20739;SDS011;10530;49.968;19.844;2022-12-18T20:41:21;18.73;;;9.00;;
20739;SDS011;10530;49.968;19.844;2022-12-18T20:46:24;16.13;;;8.70;;
20739;SDS011;10530;49.968;19.844;2022-12-18T20:51:27;8.33;;;5.03;;
20739;SDS011;10530;49.968;19.844;2022-12-18T20:56:31;10.02;;;5.10;;
20739;SDS011;10530;49.968;19.844;2022-12-18T21:01:34;10.70;;;4.45;;
20739;SDS011;10530;49.968;19.844;2022-12-18T21:06:39;15.27;;;6.83;;
20739;SDS011;10530;49.968;19.844;2022-12-18T21:11:45;9.02;;;5.70;;
20739;SDS011;10530;49.968;19.844;2022-12-18T21:17:06;14.90;;;8.73;;
20739;SDS011;10530;49.968;19.844;2022-12-18T21:22:10;12.15;;;6.30;;
20739;SDS011;10530;49.968;19.844;2022-12-18T21:27:12;16.23;;;7.78;;
20739;SDS011;10530;49.968;19.844;2022-12-18T21:32:18;10.33;;;5.13;;
20739;SDS011;10530;49.968;19.844;2022-12-18T21:37:39;10.38;;;5.10;;
20739;SDS011;10530;49.968;19.844;2022-12-18T21:42:42;20.17;;;6.80;;
20739;SDS011;10530;49.968;19.844;2022-12-18T21:48:03;10.07;;;5.75;;
20739;SDS011;10530;49.968;19.844;2022-12-18T21:53:07;27.60;;;9.60;;
20739;SDS011;10530;49.968;19.844;2022-12-18T21:58:09;20.65;;;7.45;;
20739;SDS011;10530;49.968;19.844;2022-12-18T22:03:12;20.10;;;7.05;;
20739;SDS011;10530;49.968;19.844;2022-12-18T22:08:19;10.93;;;6.93;;
20739;SDS011;10530;49.968;19.844;2022-12-18T22:13:22;10.48;;;8.27;;
20739;SDS011;10530;49.968;19.844;2022-12-18T22:18:25;9.60;;;7.60;;
20739;SDS011;10530;49.968;19.844;2022-12-18T22:23:28;10.90;;;6.20;;
20739;SDS011;10530;49.968;19.844;2022-12-18T22:28:31;6.32;;;2.22;;
20739;SDS011;10530;49.968;19.844;2022-12-18T22:33:52;19.27;;;7.73;;
20739;SDS011;10530;49.968;19.844;2022-12-18T22:38:55;5.22;;;3.15;;
20739;SDS011;10530;49.968;19.844;2022-12-18T22:43:58;25.65;;;5.93;;
20739;SDS011;10530;49.968;19.844;2022-12-18T22:49:00;18.45;;;6.70;;
20739;SDS011;10530;49.968;19.844;2022-12-18T22:54:03;21.08;;;5.30;;
20739;SDS011;10530;49.968;19.844;2022-12-18T22:59:06;9.00;;;5.63;;
20739;SDS011;10530;49.968;19.844;2022-12-18T23:04:10;10.88;;;5.78;;
20739;SDS011;10530;49.968;19.844;2022-12-18T23:09:14;16.58;;;7.63;;
20739;SDS011;10530;49.968;19.844;2022-12-18T23:14:18;11.38;;;8.68;;
20739;SDS011;10530;49.968;19.844;2022-12-18T23:19:21;23.60;;;12.73;;
20739;SDS011;10530;49.968;19.844;2022-12-18T23:24:25;10.50;;;6.90;;
20739;SDS011;10530;49.968;19.844;2022-12-18T23:29:27;25.85;;;7.70;;
20739;SDS011;10530;49.968;19.844;2022-12-18T23:34:30;19.23;;;6.65;;
20739;SDS011;10530;49.968;19.844;2022-12-18T23:39:33;11.45;;;6.70;;
20739;SDS011;10530;49.968;19.844;2022-12-18T23:44:35;19.83;;;9.73;;
20739;SDS011;10530;49.968;19.844;2022-12-18T23:49:38;11.87;;;4.10;;
20739;SDS011;10530;49.968;19.844;2022-12-18T23:54:41;23.58;;;10.35;;
20739;SDS011;10530;49.968;19.844;2022-12-18T23:59:44;26.75;;;11.30;;
